sensor_id;sensor_type;location;lat;lon;timestamp;P1;durP1;ratioP1;P2;durP2;ratioP2
68995;SDS011;56056;48.990;12.146;2023-05-29T00:00:18;818.65;;;762.90;;
68995;SDS011;56056;48.990;12.146;2023-05-29T00:02:45;812.63;;;757.33;;
68995;SDS011;56056;48.990;12.146;2023-05-29T00:05:11;818.67;;;761.35;;
68995;SDS011;56056;48.990;12.146;2023-05-29T00:07:38;863.17;;;803.55;;
68995;SDS011;56056;48.990;12.146;2023-05-29T00:10:04;954.63;;;879.60;;
68995;SDS011;56056;48.990;12.146;2023-05-29T00:12:31;923.35;;;854.80;;
68995;SDS011;56056;48.990;12.146;2023-05-29T00:14:57;899.85;;;831.92;;
68995;SDS011;56056;48.990;12.146;2023-05-29T00:17:23;925.58;;;856.90;;
68995;SDS011;56056;48.990;12.146;2023-05-29T00:19:49;873.20;;;811.95;;
68995;SDS011;56056;48.990;12.146;2023-05-29T00:22:15;926.90;;;859.88;;
68995;SDS011;56056;48.990;12.146;2023-05-29T00:24:41;926.33;;;856.88;;
68995;SDS011;56056;48.990;12.146;2023-05-29T00:27:06;927.47;;;856.45;;
68995;SDS011;56056;48.990;12.146;2023-05-29T00:29:35;889.35;;;823.55;;
68995;SDS011;56056;48.990;12.146;2023-05-29T00:32:01;942.67;;;873.75;;
68995;SDS011;56056;48.990;12.146;2023-05-29T00:34:27;918.42;;;849.10;;
68995;SDS011;56056;48.990;12.146;2023-05-29T00:36:52;885.13;;;823.75;;
68995;SDS011;56056;48.990;12.146;2023-05-29T00:39:20;952.47;;;880.45;;
68995;SDS011;56056;48.990;12.146;2023-05-29T00:41:46;906.13;;;838.83;;
68995;SDS011;56056;48.990;12.146;2023-05-29T00:44:15;863.40;;;800.30;;
68995;SDS011;56056;48.990;12.146;2023-05-29T00:46:43;791.55;;;739.97;;
68995;SDS011;56056;48.990;12.146;2023-05-29T00:49:08;823.47;;;767.03;;
68995;SDS011;56056;48.990;12.146;2023-05-29T00:51:36;815.35;;;759.25;;
68995;SDS011;56056;48.990;12.146;2023-05-29T00:54:02;808.53;;;754.50;;
68995;SDS011;56056;48.990;12.146;2023-05-29T00:56:29;811.03;;;754.70;;
68995;SDS011;56056;48.990;12.146;2023-05-29T00:58:55;800.78;;;748.28;;
68995;SDS011;56056;48.990;12.146;2023-05-29T01:01:20;651.88;;;611.25;;
68995;SDS011;56056;48.990;12.146;2023-05-29T01:03:48;671.72;;;629.00;;
68995;SDS011;56056;48.990;12.146;2023-05-29T01:06:13;631.13;;;594.92;;
68995;SDS011;56056;48.990;12.146;2023-05-29T01:08:39;550.75;;;520.22;;
68995;SDS011;56056;48.990;12.146;2023-05-29T01:11:07;632.42;;;596.42;;
68995;SDS011;56056;48.990;12.146;2023-05-29T01:13:36;573.45;;;541.42;;
68995;SDS011;56056;48.990;12.146;2023-05-29T01:16:05;566.50;;;535.47;;
68995;SDS011;56056;48.990;12.146;2023-05-29T01:18:36;503.30;;;475.50;;
68995;SDS011;56056;48.990;12.146;2023-05-29T01:21:08;456.10;;;432.55;;
68995;SDS011;56056;48.990;12.146;2023-05-29T01:23:53;477.90;;;452.42;;
68995;SDS011;56056;48.990;12.146;2023-05-29T01:29:13;460.05;;;434.80;;
68995;SDS011;56056;48.990;12.146;2023-05-29T01:31:40;527.72;;;499.08;;
68995;SDS011;56056;48.990;12.146;2023-05-29T01:34:07;514.60;;;487.48;;
68995;SDS011;56056;48.990;12.146;2023-05-29T01:36:33;493.25;;;466.33;;
68995;SDS011;56056;48.990;12.146;2023-05-29T01:38:59;522.40;;;493.92;;
68995;SDS011;56056;48.990;12.146;2023-05-29T01:41:25;500.05;;;473.73;;
68995;SDS011;56056;48.990;12.146;2023-05-29T01:43:52;472.70;;;448.40;;
68995;SDS011;56056;48.990;12.146;2023-05-29T01:46:18;425.63;;;403.67;;
68995;SDS011;56056;48.990;12.146;2023-05-29T01:48:45;426.85;;;404.10;;
68995;SDS011;56056;48.990;12.146;2023-05-29T01:51:11;482.83;;;456.30;;
68995;SDS011;56056;48.990;12.146;2023-05-29T01:53:37;465.27;;;439.73;;
68995;SDS011;56056;48.990;12.146;2023-05-29T01:56:04;475.15;;;447.98;;
68995;SDS011;56056;48.990;12.146;2023-05-29T01:58:30;422.08;;;399.83;;
68995;SDS011;56056;48.990;12.146;2023-05-29T02:00:57;420.67;;;398.70;;
68995;SDS011;56056;48.990;12.146;2023-05-29T02:03:23;410.27;;;387.52;;
68995;SDS011;56056;48.990;12.146;2023-05-29T02:05:49;448.80;;;425.85;;
68995;SDS011;56056;48.990;12.146;2023-05-29T02:08:15;432.15;;;409.60;;
68995;SDS011;56056;48.990;12.146;2023-05-29T02:10:41;418.55;;;396.48;;
68995;SDS011;56056;48.990;12.146;2023-05-29T02:13:06;434.80;;;411.67;;
68995;SDS011;56056;48.990;12.146;2023-05-29T02:15:32;441.55;;;418.65;;
68995;SDS011;56056;48.990;12.146;2023-05-29T02:17:59;464.30;;;440.00;;
68995;SDS011;56056;48.990;12.146;2023-05-29T02:20:26;438.88;;;416.30;;
68995;SDS011;56056;48.990;12.146;2023-05-29T02:22:52;411.70;;;390.05;;
68995;SDS011;56056;48.990;12.146;2023-05-29T02:25:17;437.85;;;412.95;;
68995;SDS011;56056;48.990;12.146;2023-05-29T02:27:43;476.05;;;449.50;;
68995;SDS011;56056;48.990;12.146;2023-05-29T02:30:09;429.20;;;405.35;;
68995;SDS011;56056;48.990;12.146;2023-05-29T02:32:35;410.90;;;387.48;;
68995;SDS011;56056;48.990;12.146;2023-05-29T02:35:02;408.15;;;383.95;;
68995;SDS011;56056;48.990;12.146;2023-05-29T02:37:29;438.13;;;410.67;;
68995;SDS011;56056;48.990;12.146;2023-05-29T02:39:54;457.17;;;427.83;;
68995;SDS011;56056;48.990;12.146;2023-05-29T02:42:20;419.20;;;395.80;;
68995;SDS011;56056;48.990;12.146;2023-05-29T02:44:46;444.02;;;417.60;;
68995;SDS011;56056;48.990;12.146;2023-05-29T02:47:12;453.48;;;424.33;;
68995;SDS011;56056;48.990;12.146;2023-05-29T02:49:37;393.38;;;370.05;;
68995;SDS011;56056;48.990;12.146;2023-05-29T02:52:05;440.25;;;413.92;;
68995;SDS011;56056;48.990;12.146;2023-05-29T02:54:31;441.40;;;413.33;;
68995;SDS011;56056;48.990;12.146;2023-05-29T02:56:56;424.20;;;396.02;;
68995;SDS011;56056;48.990;12.146;2023-05-29T02:59:22;432.50;;;405.88;;
68995;SDS011;56056;48.990;12.146;2023-05-29T03:01:47;450.27;;;421.80;;
68995;SDS011;56056;48.990;12.146;2023-05-29T03:04:13;485.67;;;451.48;;
68995;SDS011;56056;48.990;12.146;2023-05-29T03:06:39;500.05;;;463.75;;
68995;SDS011;56056;48.990;12.146;2023-05-29T03:09:06;531.38;;;493.60;;
68995;SDS011;56056;48.990;12.146;2023-05-29T03:11:33;510.38;;;475.42;;
68995;SDS011;56056;48.990;12.146;2023-05-29T03:14:00;511.63;;;473.80;;
68995;SDS011;56056;48.990;12.146;2023-05-29T03:16:26;544.75;;;504.35;;
68995;SDS011;56056;48.990;12.146;2023-05-29T03:18:54;572.85;;;531.38;;
68995;SDS011;56056;48.990;12.146;2023-05-29T03:21:19;549.97;;;506.08;;
68995;SDS011;56056;48.990;12.146;2023-05-29T03:23:46;625.33;;;578.22;;
68995;SDS011;56056;48.990;12.146;2023-05-29T03:26:13;671.47;;;618.92;;
68995;SDS011;56056;48.990;12.146;2023-05-29T03:28:39;687.00;;;635.00;;
68995;SDS011;56056;48.990;12.146;2023-05-29T03:31:04;706.78;;;651.83;;
68995;SDS011;56056;48.990;12.146;2023-05-29T03:33:30;732.90;;;675.53;;
68995;SDS011;56056;48.990;12.146;2023-05-29T03:35:56;646.75;;;594.00;;
68995;SDS011;56056;48.990;12.146;2023-05-29T03:38:21;649.47;;;598.53;;
68995;SDS011;56056;48.990;12.146;2023-05-29T03:40:48;663.65;;;611.17;;
68995;SDS011;56056;48.990;12.146;2023-05-29T03:43:14;594.03;;;547.85;;
68995;SDS011;56056;48.990;12.146;2023-05-29T03:45:40;624.35;;;575.60;;
68995;SDS011;56056;48.990;12.146;2023-05-29T03:48:06;626.42;;;577.17;;
68995;SDS011;56056;48.990;12.146;2023-05-29T03:50:31;651.30;;;602.40;;
68995;SDS011;56056;48.990;12.146;2023-05-29T03:52:57;641.63;;;590.97;;
68995;SDS011;56056;48.990;12.146;2023-05-29T03:55:23;626.33;;;574.90;;
68995;SDS011;56056;48.990;12.146;2023-05-29T03:57:48;622.00;;;571.45;;
68995;SDS011;56056;48.990;12.146;2023-05-29T04:00:16;635.50;;;584.83;;
68995;SDS011;56056;48.990;12.146;2023-05-29T04:02:43;655.40;;;603.75;;
68995;SDS011;56056;48.990;12.146;2023-05-29T04:05:08;614.03;;;567.00;;
68995;SDS011;56056;48.990;12.146;2023-05-29T04:07:35;602.53;;;555.72;;
68995;SDS011;56056;48.990;12.146;2023-05-29T04:10:04;605.22;;;557.78;;
68995;SDS011;56056;48.990;12.146;2023-05-29T04:12:30;543.00;;;503.23;;
68995;SDS011;56056;48.990;12.146;2023-05-29T04:14:56;534.97;;;494.70;;
68995;SDS011;56056;48.990;12.146;2023-05-29T04:17:23;593.70;;;548.78;;
68995;SDS011;56056;48.990;12.146;2023-05-29T04:19:49;537.05;;;495.33;;
68995;SDS011;56056;48.990;12.146;2023-05-29T04:22:14;531.70;;;492.42;;
68995;SDS011;56056;48.990;12.146;2023-05-29T04:24:40;484.80;;;448.23;;
68995;SDS011;56056;48.990;12.146;2023-05-29T04:27:06;548.00;;;507.13;;
68995;SDS011;56056;48.990;12.146;2023-05-29T04:29:33;514.30;;;474.83;;
68995;SDS011;56056;48.990;12.146;2023-05-29T04:31:59;493.25;;;458.45;;
68995;SDS011;56056;48.990;12.146;2023-05-29T04:34:29;504.90;;;468.15;;
68995;SDS011;56056;48.990;12.146;2023-05-29T04:36:55;505.15;;;468.58;;
68995;SDS011;56056;48.990;12.146;2023-05-29T04:39:22;497.70;;;460.92;;
68995;SDS011;56056;48.990;12.146;2023-05-29T04:41:48;487.98;;;452.75;;
68995;SDS011;56056;48.990;12.146;2023-05-29T04:44:14;428.52;;;400.17;;
68995;SDS011;56056;48.990;12.146;2023-05-29T04:46:40;446.63;;;415.48;;
68995;SDS011;56056;48.990;12.146;2023-05-29T04:49:09;466.52;;;435.10;;
68995;SDS011;56056;48.990;12.146;2023-05-29T04:51:36;458.45;;;428.45;;
68995;SDS011;56056;48.990;12.146;2023-05-29T04:54:05;434.88;;;410.17;;
68995;SDS011;56056;48.990;12.146;2023-05-29T04:56:31;472.58;;;442.40;;
68995;SDS011;56056;48.990;12.146;2023-05-29T04:58:57;411.70;;;387.33;;
68995;SDS011;56056;48.990;12.146;2023-05-29T05:01:23;407.35;;;382.77;;
68995;SDS011;56056;48.990;12.146;2023-05-29T05:03:49;454.00;;;428.67;;
68995;SDS011;56056;48.990;12.146;2023-05-29T05:06:15;380.65;;;360.85;;
68995;SDS011;56056;48.990;12.146;2023-05-29T05:08:43;418.25;;;395.33;;
68995;SDS011;56056;48.990;12.146;2023-05-29T05:11:08;463.38;;;436.98;;
68995;SDS011;56056;48.990;12.146;2023-05-29T05:13:34;460.65;;;436.23;;
68995;SDS011;56056;48.990;12.146;2023-05-29T05:16:00;488.10;;;462.38;;
68995;SDS011;56056;48.990;12.146;2023-05-29T05:18:26;487.70;;;462.13;;
68995;SDS011;56056;48.990;12.146;2023-05-29T05:20:51;580.10;;;547.53;;
68995;SDS011;56056;48.990;12.146;2023-05-29T05:23:17;559.25;;;526.92;;
68995;SDS011;56056;48.990;12.146;2023-05-29T05:25:44;572.58;;;540.42;;
68995;SDS011;56056;48.990;12.146;2023-05-29T05:28:10;678.00;;;635.83;;
68995;SDS011;56056;48.990;12.146;2023-05-29T05:30:35;679.78;;;636.80;;
68995;SDS011;56056;48.990;12.146;2023-05-29T05:33:01;778.97;;;728.45;;
68995;SDS011;56056;48.990;12.146;2023-05-29T05:35:27;817.60;;;758.03;;
68995;SDS011;56056;48.990;12.146;2023-05-29T05:37:53;958.03;;;889.80;;
68995;SDS011;56056;48.990;12.146;2023-05-29T05:40:18;1030.47;;;947.65;;
68995;SDS011;56056;48.990;12.146;2023-05-29T05:42:45;1050.50;;;960.35;;
68995;SDS011;56056;48.990;12.146;2023-05-29T05:45:11;1035.85;;;951.25;;
68995;SDS011;56056;48.990;12.146;2023-05-29T05:47:36;1010.05;;;930.83;;
68995;SDS011;56056;48.990;12.146;2023-05-29T05:50:02;987.35;;;913.47;;
68995;SDS011;56056;48.990;12.146;2023-05-29T05:52:28;1048.20;;;967.13;;
68995;SDS011;56056;48.990;12.146;2023-05-29T05:54:56;1008.72;;;936.30;;
68995;SDS011;56056;48.990;12.146;2023-05-29T05:57:22;940.30;;;873.83;;
68995;SDS011;56056;48.990;12.146;2023-05-29T05:59:49;976.88;;;906.33;;
68995;SDS011;56056;48.990;12.146;2023-05-29T06:02:14;1137.60;;;999.90;;
68995;SDS011;56056;48.990;12.146;2023-05-29T06:04:40;1015.95;;;939.22;;
68995;SDS011;56056;48.990;12.146;2023-05-29T06:07:06;921.88;;;858.70;;
68995;SDS011;56056;48.990;12.146;2023-05-29T06:09:32;897.75;;;835.53;;
68995;SDS011;56056;48.990;12.146;2023-05-29T06:11:58;1008.55;;;928.22;;
68995;SDS011;56056;48.990;12.146;2023-05-29T06:14:24;1033.90;;;949.92;;
68995;SDS011;56056;48.990;12.146;2023-05-29T06:16:51;1073.40;;;983.28;;
68995;SDS011;56056;48.990;12.146;2023-05-29T06:19:18;1108.38;;;999.90;;
68995;SDS011;56056;48.990;12.146;2023-05-29T06:21:44;1048.80;;;961.05;;
68995;SDS011;56056;48.990;12.146;2023-05-29T06:24:09;1185.18;;;999.90;;
68995;SDS011;56056;48.990;12.146;2023-05-29T06:26:36;1173.68;;;999.90;;
68995;SDS011;56056;48.990;12.146;2023-05-29T06:29:02;1213.85;;;999.90;;
68995;SDS011;56056;48.990;12.146;2023-05-29T06:31:28;1235.03;;;999.90;;
68995;SDS011;56056;48.990;12.146;2023-05-29T06:33:55;1243.07;;;999.90;;
68995;SDS011;56056;48.990;12.146;2023-05-29T06:36:22;1246.57;;;999.90;;
68995;SDS011;56056;48.990;12.146;2023-05-29T06:38:47;1264.75;;;999.90;;
68995;SDS011;56056;48.990;12.146;2023-05-29T06:41:13;1254.68;;;999.90;;
68995;SDS011;56056;48.990;12.146;2023-05-29T06:43:39;1230.72;;;999.90;;
68995;SDS011;56056;48.990;12.146;2023-05-29T06:46:04;1248.50;;;999.90;;
68995;SDS011;56056;48.990;12.146;2023-05-29T06:48:32;1231.60;;;999.90;;
68995;SDS011;56056;48.990;12.146;2023-05-29T06:50:59;1248.97;;;999.90;;
68995;SDS011;56056;48.990;12.146;2023-05-29T06:53:24;1230.78;;;999.90;;
68995;SDS011;56056;48.990;12.146;2023-05-29T06:55:50;1231.25;;;999.90;;
68995;SDS011;56056;48.990;12.146;2023-05-29T06:58:17;1251.00;;;999.90;;
68995;SDS011;56056;48.990;12.146;2023-05-29T07:00:42;1289.55;;;999.90;;
68995;SDS011;56056;48.990;12.146;2023-05-29T07:03:08;1261.63;;;999.90;;
68995;SDS011;56056;48.990;12.146;2023-05-29T07:05:34;1263.95;;;999.90;;
68995;SDS011;56056;48.990;12.146;2023-05-29T07:08:01;1264.50;;;999.90;;
68995;SDS011;56056;48.990;12.146;2023-05-29T07:10:26;1324.15;;;999.90;;
68995;SDS011;56056;48.990;12.146;2023-05-29T07:12:52;1260.13;;;999.90;;
68995;SDS011;56056;48.990;12.146;2023-05-29T07:15:17;1247.47;;;999.90;;
68995;SDS011;56056;48.990;12.146;2023-05-29T07:17:43;1263.82;;;999.90;;
68995;SDS011;56056;48.990;12.146;2023-05-29T07:20:09;1229.72;;;999.90;;
68995;SDS011;56056;48.990;12.146;2023-05-29T07:22:35;1216.47;;;999.90;;
68995;SDS011;56056;48.990;12.146;2023-05-29T07:25:03;1269.95;;;999.90;;
68995;SDS011;56056;48.990;12.146;2023-05-29T07:27:29;1365.45;;;999.90;;
68995;SDS011;56056;48.990;12.146;2023-05-29T07:29:54;1271.35;;;999.90;;
68995;SDS011;56056;48.990;12.146;2023-05-29T07:32:20;1169.45;;;999.90;;
68995;SDS011;56056;48.990;12.146;2023-05-29T07:34:46;1170.50;;;999.90;;
68995;SDS011;56056;48.990;12.146;2023-05-29T07:37:14;1243.68;;;999.90;;
68995;SDS011;56056;48.990;12.146;2023-05-29T07:39:40;1183.07;;;999.90;;
68995;SDS011;56056;48.990;12.146;2023-05-29T07:42:08;1181.80;;;999.90;;
68995;SDS011;56056;48.990;12.146;2023-05-29T07:44:34;1247.93;;;999.90;;
68995;SDS011;56056;48.990;12.146;2023-05-29T07:47:00;1277.00;;;999.90;;
68995;SDS011;56056;48.990;12.146;2023-05-29T07:49:25;1205.40;;;999.90;;
68995;SDS011;56056;48.990;12.146;2023-05-29T07:51:51;1191.38;;;999.90;;
68995;SDS011;56056;48.990;12.146;2023-05-29T07:54:16;1310.07;;;999.90;;
68995;SDS011;56056;48.990;12.146;2023-05-29T07:56:45;1149.15;;;999.90;;
68995;SDS011;56056;48.990;12.146;2023-05-29T07:59:12;1206.65;;;999.90;;
68995;SDS011;56056;48.990;12.146;2023-05-29T08:01:38;1122.03;;;998.97;;
68995;SDS011;56056;48.990;12.146;2023-05-29T08:04:04;1601.82;;;999.90;;
68995;SDS011;56056;48.990;12.146;2023-05-29T08:06:30;1407.80;;;999.90;;
68995;SDS011;56056;48.990;12.146;2023-05-29T08:08:57;1434.97;;;999.90;;
68995;SDS011;56056;48.990;12.146;2023-05-29T08:11:23;1102.60;;;993.28;;
68995;SDS011;56056;48.990;12.146;2023-05-29T08:13:48;1048.15;;;949.28;;
68995;SDS011;56056;48.990;12.146;2023-05-29T08:16:15;1206.82;;;999.90;;
68995;SDS011;56056;48.990;12.146;2023-05-29T08:18:41;1065.32;;;966.65;;
68995;SDS011;56056;48.990;12.146;2023-05-29T08:21:07;1159.75;;;999.90;;
68995;SDS011;56056;48.990;12.146;2023-05-29T08:23:34;1286.07;;;999.90;;
68995;SDS011;56056;48.990;12.146;2023-05-29T08:26:00;1146.45;;;999.90;;
68995;SDS011;56056;48.990;12.146;2023-05-29T08:28:27;1200.90;;;999.90;;
68995;SDS011;56056;48.990;12.146;2023-05-29T08:30:53;1080.25;;;981.60;;
68995;SDS011;56056;48.990;12.146;2023-05-29T08:33:20;1129.90;;;999.90;;
68995;SDS011;56056;48.990;12.146;2023-05-29T08:35:45;1169.72;;;999.90;;
68995;SDS011;56056;48.990;12.146;2023-05-29T08:38:11;1105.35;;;998.15;;
68995;SDS011;56056;48.990;12.146;2023-05-29T08:40:37;1102.72;;;999.90;;
68995;SDS011;56056;48.990;12.146;2023-05-29T08:43:04;1416.63;;;999.90;;
68995;SDS011;56056;48.990;12.146;2023-05-29T08:45:43;1108.88;;;998.70;;
68995;SDS011;56056;48.990;12.146;2023-05-29T08:48:09;1175.10;;;999.90;;
68995;SDS011;56056;48.990;12.146;2023-05-29T08:50:37;1278.40;;;999.90;;
68995;SDS011;56056;48.990;12.146;2023-05-29T08:53:05;1153.95;;;999.90;;
68995;SDS011;56056;48.990;12.146;2023-05-29T08:55:31;1196.47;;;999.90;;
68995;SDS011;56056;48.990;12.146;2023-05-29T08:57:57;1201.50;;;999.90;;
68995;SDS011;56056;48.990;12.146;2023-05-29T09:00:22;1182.30;;;999.90;;
68995;SDS011;56056;48.990;12.146;2023-05-29T09:02:53;1137.38;;;999.90;;
68995;SDS011;56056;48.990;12.146;2023-05-29T09:05:20;1284.10;;;999.90;;
68995;SDS011;56056;48.990;12.146;2023-05-29T09:07:47;1752.15;;;999.90;;
68995;SDS011;56056;48.990;12.146;2023-05-29T09:10:14;1149.35;;;999.90;;
68995;SDS011;56056;48.990;12.146;2023-05-29T09:12:40;1319.60;;;999.90;;
68995;SDS011;56056;48.990;12.146;2023-05-29T09:15:08;1169.82;;;999.90;;
68995;SDS011;56056;48.990;12.146;2023-05-29T09:17:42;1155.60;;;999.90;;
68995;SDS011;56056;48.990;12.146;2023-05-29T09:20:14;1149.53;;;999.90;;
68995;SDS011;56056;48.990;12.146;2023-05-29T09:22:41;1150.70;;;999.90;;
68995;SDS011;56056;48.990;12.146;2023-05-29T09:25:09;1134.63;;;999.90;;
68995;SDS011;56056;48.990;12.146;2023-05-29T09:27:38;1455.35;;;999.90;;
68995;SDS011;56056;48.990;12.146;2023-05-29T09:30:04;1164.05;;;999.90;;
68995;SDS011;56056;48.990;12.146;2023-05-29T09:32:31;1127.57;;;999.90;;
68995;SDS011;56056;48.990;12.146;2023-05-29T09:34:59;1264.82;;;999.90;;
68995;SDS011;56056;48.990;12.146;2023-05-29T09:37:26;1210.45;;;999.90;;
68995;SDS011;56056;48.990;12.146;2023-05-29T09:39:52;1142.80;;;999.90;;
68995;SDS011;56056;48.990;12.146;2023-05-29T09:42:19;1139.15;;;999.90;;
68995;SDS011;56056;48.990;12.146;2023-05-29T09:44:46;1178.78;;;999.90;;
68995;SDS011;56056;48.990;12.146;2023-05-29T09:47:16;1134.85;;;999.90;;
68995;SDS011;56056;48.990;12.146;2023-05-29T09:49:42;1143.15;;;999.90;;
68995;SDS011;56056;48.990;12.146;2023-05-29T09:52:08;1164.72;;;999.90;;
68995;SDS011;56056;48.990;12.146;2023-05-29T09:54:39;1253.30;;;999.90;;
68995;SDS011;56056;48.990;12.146;2023-05-29T09:57:06;1120.00;;;999.90;;
68995;SDS011;56056;48.990;12.146;2023-05-29T09:59:34;1172.80;;;999.90;;
68995;SDS011;56056;48.990;12.146;2023-05-29T10:02:02;1136.57;;;999.90;;
68995;SDS011;56056;48.990;12.146;2023-05-29T10:04:29;1133.40;;;999.90;;
68995;SDS011;56056;48.990;12.146;2023-05-29T10:06:55;1141.32;;;999.90;;
68995;SDS011;56056;48.990;12.146;2023-05-29T10:09:21;1155.57;;;999.90;;
68995;SDS011;56056;48.990;12.146;2023-05-29T10:11:50;1131.88;;;999.90;;
68995;SDS011;56056;48.990;12.146;2023-05-29T10:14:18;1105.63;;;996.63;;
68995;SDS011;56056;48.990;12.146;2023-05-29T10:16:47;1092.63;;;985.47;;
68995;SDS011;56056;48.990;12.146;2023-05-29T10:19:13;1114.22;;;999.90;;
68995;SDS011;56056;48.990;12.146;2023-05-29T10:21:43;1086.57;;;987.25;;
68995;SDS011;56056;48.990;12.146;2023-05-29T10:24:09;1060.78;;;965.05;;
68995;SDS011;56056;48.990;12.146;2023-05-29T10:26:37;1017.92;;;927.85;;
68995;SDS011;56056;48.990;12.146;2023-05-29T10:29:05;1021.80;;;936.20;;
68995;SDS011;56056;48.990;12.146;2023-05-29T10:31:38;1056.15;;;971.17;;
68995;SDS011;56056;48.990;12.146;2023-05-29T10:34:13;934.08;;;860.97;;
68995;SDS011;56056;48.990;12.146;2023-05-29T10:36:44;917.05;;;846.80;;
68995;SDS011;56056;48.990;12.146;2023-05-29T10:39:12;902.75;;;837.65;;
68995;SDS011;56056;48.990;12.146;2023-05-29T10:41:38;864.20;;;801.33;;
68995;SDS011;56056;48.990;12.146;2023-05-29T10:47:06;811.40;;;756.50;;
68995;SDS011;56056;48.990;12.146;2023-05-29T10:49:35;780.42;;;729.83;;
68995;SDS011;56056;48.990;12.146;2023-05-29T10:52:00;713.88;;;672.05;;
68995;SDS011;56056;48.990;12.146;2023-05-29T10:54:29;693.45;;;652.65;;
68995;SDS011;56056;48.990;12.146;2023-05-29T10:57:05;749.15;;;701.92;;
68995;SDS011;56056;48.990;12.146;2023-05-29T10:59:36;784.65;;;738.42;;
68995;SDS011;56056;48.990;12.146;2023-05-29T11:02:01;765.92;;;720.72;;
68995;SDS011;56056;48.990;12.146;2023-05-29T11:04:29;728.40;;;687.13;;
68995;SDS011;56056;48.990;12.146;2023-05-29T11:06:58;670.40;;;632.40;;
68995;SDS011;56056;48.990;12.146;2023-05-29T11:09:28;691.53;;;651.35;;
68995;SDS011;56056;48.990;12.146;2023-05-29T11:12:11;646.33;;;610.35;;
68995;SDS011;56056;48.990;12.146;2023-05-29T11:14:44;640.95;;;604.47;;
68995;SDS011;56056;48.990;12.146;2023-05-29T11:20:00;562.10;;;532.50;;
68995;SDS011;56056;48.990;12.146;2023-05-29T11:22:31;481.00;;;456.75;;
68995;SDS011;56056;48.990;12.146;2023-05-29T11:25:05;492.52;;;467.88;;
68995;SDS011;56056;48.990;12.146;2023-05-29T11:27:33;504.00;;;478.40;;
68995;SDS011;56056;48.990;12.146;2023-05-29T11:29:59;489.98;;;465.45;;
68995;SDS011;56056;48.990;12.146;2023-05-29T11:32:25;421.08;;;399.13;;
68995;SDS011;56056;48.990;12.146;2023-05-29T11:34:53;507.25;;;480.13;;
68995;SDS011;56056;48.990;12.146;2023-05-29T11:37:21;447.90;;;425.58;;
68995;SDS011;56056;48.990;12.146;2023-05-29T11:39:49;669.38;;;628.78;;
68995;SDS011;56056;48.990;12.146;2023-05-29T11:42:14;590.10;;;558.50;;
68995;SDS011;56056;48.990;12.146;2023-05-29T11:44:40;956.70;;;891.17;;
68995;SDS011;56056;48.990;12.146;2023-05-29T11:47:06;782.90;;;730.13;;
68995;SDS011;56056;48.990;12.146;2023-05-29T11:49:33;821.72;;;767.80;;
68995;SDS011;56056;48.990;12.146;2023-05-29T11:52:06;819.28;;;766.35;;
68995;SDS011;56056;48.990;12.146;2023-05-29T11:54:33;772.55;;;723.63;;
68995;SDS011;56056;48.990;12.146;2023-05-29T11:57:01;774.75;;;726.58;;
68995;SDS011;56056;48.990;12.146;2023-05-29T11:59:28;941.05;;;878.70;;
68995;SDS011;56056;48.990;12.146;2023-05-29T12:01:54;717.22;;;674.17;;
68995;SDS011;56056;48.990;12.146;2023-05-29T12:04:19;697.53;;;657.22;;
68995;SDS011;56056;48.990;12.146;2023-05-29T12:06:45;588.33;;;557.15;;
68995;SDS011;56056;48.990;12.146;2023-05-29T12:09:22;775.58;;;724.63;;
68995;SDS011;56056;48.990;12.146;2023-05-29T12:11:49;742.38;;;694.53;;
68995;SDS011;56056;48.990;12.146;2023-05-29T12:14:16;672.38;;;632.10;;
68995;SDS011;56056;48.990;12.146;2023-05-29T12:16:42;650.38;;;612.80;;
68995;SDS011;56056;48.990;12.146;2023-05-29T12:19:08;613.65;;;579.03;;
68995;SDS011;56056;48.990;12.146;2023-05-29T12:21:34;650.42;;;613.47;;
68995;SDS011;56056;48.990;12.146;2023-05-29T12:24:00;662.85;;;623.20;;
68995;SDS011;56056;48.990;12.146;2023-05-29T12:26:25;643.47;;;605.10;;
68995;SDS011;56056;48.990;12.146;2023-05-29T12:28:52;648.83;;;611.78;;
68995;SDS011;56056;48.990;12.146;2023-05-29T12:31:27;612.40;;;578.30;;
68995;SDS011;56056;48.990;12.146;2023-05-29T12:33:54;668.50;;;627.50;;
68995;SDS011;56056;48.990;12.146;2023-05-29T12:36:22;743.92;;;699.35;;
68995;SDS011;56056;48.990;12.146;2023-05-29T12:38:51;637.53;;;600.63;;
68995;SDS011;56056;48.990;12.146;2023-05-29T12:41:23;693.63;;;652.10;;
68995;SDS011;56056;48.990;12.146;2023-05-29T12:43:52;869.13;;;808.22;;
68995;SDS011;56056;48.990;12.146;2023-05-29T12:46:18;724.63;;;679.95;;
68995;SDS011;56056;48.990;12.146;2023-05-29T12:48:45;930.53;;;862.00;;
68995;SDS011;56056;48.990;12.146;2023-05-29T12:51:10;922.63;;;853.92;;
68995;SDS011;56056;48.990;12.146;2023-05-29T12:53:36;855.92;;;795.45;;
68995;SDS011;56056;48.990;12.146;2023-05-29T12:56:02;771.03;;;720.40;;
68995;SDS011;56056;48.990;12.146;2023-05-29T12:58:28;911.10;;;846.30;;
68995;SDS011;56056;48.990;12.146;2023-05-29T13:00:53;1036.28;;;950.63;;
68995;SDS011;56056;48.990;12.146;2023-05-29T13:03:22;999.03;;;920.25;;
68995;SDS011;56056;48.990;12.146;2023-05-29T13:05:49;985.60;;;906.47;;
68995;SDS011;56056;48.990;12.146;2023-05-29T13:08:15;1012.38;;;927.33;;
68995;SDS011;56056;48.990;12.146;2023-05-29T13:10:41;1124.78;;;999.90;;
68995;SDS011;56056;48.990;12.146;2023-05-29T13:13:06;1050.00;;;955.47;;
68995;SDS011;56056;48.990;12.146;2023-05-29T13:15:32;1092.55;;;989.05;;
68995;SDS011;56056;48.990;12.146;2023-05-29T13:17:58;1159.03;;;999.90;;
68995;SDS011;56056;48.990;12.146;2023-05-29T13:20:24;940.75;;;867.13;;
68995;SDS011;56056;48.990;12.146;2023-05-29T13:22:51;1190.43;;;999.90;;
68995;SDS011;56056;48.990;12.146;2023-05-29T13:25:19;1194.93;;;999.90;;
68995;SDS011;56056;48.990;12.146;2023-05-29T13:27:46;1288.65;;;999.90;;
68995;SDS011;56056;48.990;12.146;2023-05-29T13:30:13;1097.53;;;989.55;;
68995;SDS011;56056;48.990;12.146;2023-05-29T13:32:40;1193.35;;;999.90;;
68995;SDS011;56056;48.990;12.146;2023-05-29T13:35:06;1189.28;;;999.90;;
68995;SDS011;56056;48.990;12.146;2023-05-29T13:37:32;1149.78;;;999.90;;
68995;SDS011;56056;48.990;12.146;2023-05-29T13:39:59;1109.25;;;997.42;;
68995;SDS011;56056;48.990;12.146;2023-05-29T13:42:25;1206.35;;;999.90;;
68995;SDS011;56056;48.990;12.146;2023-05-29T13:44:50;1110.03;;;998.25;;
68995;SDS011;56056;48.990;12.146;2023-05-29T13:47:16;1192.45;;;999.90;;